createdAt,value
2019-05-20T00:01:48.599Z,95806.78
2019-05-20T00:04:23.641Z,95806.85
2019-05-20T00:06:56.399Z,95806.43
2019-05-20T00:09:28.369Z,95806.15
2019-05-20T00:12:00.975Z,95806.66
2019-05-20T00:14:32.720Z,95802.45
2019-05-20T00:17:10.716Z,95803.24
2019-05-20T00:19:46.551Z,95797.70
2019-05-20T00:22:21.582Z,95797.15
2019-05-20T00:24:55.487Z,95793.03
2019-05-20T00:27:27.226Z,95784.16
2019-05-20T00:29:57.983Z,95782.19
2019-05-20T00:32:42.321Z,95777.53
2019-05-20T00:35:11.963Z,95774.58
2019-05-20T01:03:03.344Z,95765.03
2019-05-20T01:05:34.002Z,95762.64
2019-05-20T01:08:05.036Z,95761.08
2019-05-20T01:10:36.313Z,95757.64
2019-05-20T01:13:07.932Z,95759.48
2019-05-20T01:15:39.990Z,95752.57
2019-05-20T01:18:11.625Z,95750.70
2019-05-20T01:20:43.173Z,95752.78
2019-05-20T01:23:20.564Z,95749.05
2019-05-20T01:25:52.093Z,95749.45
2019-05-20T01:28:23.384Z,95753.27
2019-05-20T01:30:55.267Z,95751.08
2019-05-20T01:33:26.598Z,95755.15
2019-05-20T01:35:58.076Z,95753.06
2019-05-20T01:38:29.393Z,95749.17
2019-05-20T01:41:00.958Z,95756.67
2019-05-20T01:43:32.424Z,95760.67
2019-05-20T01:46:03.091Z,95753.04
2019-05-20T01:48:34.687Z,95761.97
2019-05-20T01:51:06.039Z,95754.36
2019-05-20T01:53:37.816Z,95757.16
2019-05-20T01:56:09.127Z,95754.38
2019-05-20T01:58:41.036Z,95749.39
2019-05-20T02:01:11.844Z,95748.38
2019-05-20T02:03:43.403Z,95747.16
2019-05-20T02:06:15.025Z,95751.33
2019-05-20T02:08:46.299Z,95756.22
2019-05-20T02:11:17.303Z,95756.92
2019-05-20T02:14:01.603Z,95757.08
2019-05-20T02:16:33.642Z,95760.97
2019-05-20T02:19:04.685Z,95755.39
2019-05-20T02:21:37.880Z,95753.41
2019-05-20T02:24:09.863Z,95755.36
2019-05-20T02:26:40.831Z,95761.45
2019-05-20T02:29:12.434Z,95761.75
2019-05-20T02:31:43.393Z,95755.73
2019-05-20T02:34:14.311Z,95755.87
2019-05-20T02:36:45.315Z,95753.74
2019-05-20T02:39:16.303Z,95755.69
2019-05-20T02:41:47.329Z,95756.55
2019-05-20T02:44:19.334Z,95755.47
2019-05-20T02:46:50.309Z,95757.95
2019-05-20T02:49:21.674Z,95760.52
2019-05-20T02:51:53.354Z,95755.66
2019-05-20T02:54:24.379Z,95759.83
2019-05-20T02:56:55.727Z,95755.82
2019-05-20T02:59:27.152Z,95759.25
2019-05-20T03:01:58.426Z,95756.19
2019-05-20T03:04:29.501Z,95760.12
2019-05-20T03:07:00.914Z,95759.25
2019-05-20T03:09:32.347Z,95757.42
2019-05-20T03:12:03.447Z,95757.95
2019-05-20T03:14:35.488Z,95759.55
2019-05-20T03:17:06.512Z,95764.23
2019-05-20T03:19:37.550Z,95763.37
2019-05-20T03:22:12.789Z,95764.77
2019-05-20T03:24:44.445Z,95760.31
2019-05-20T03:27:15.907Z,95758.85
2019-05-20T03:29:47.205Z,95753.99
2019-05-20T03:32:18.481Z,95754.44
2019-05-20T03:34:58.761Z,95751.56
2019-05-20T03:37:21.987Z,95751.65
2019-05-20T03:39:53.018Z,95752.98
2019-05-20T03:42:24.405Z,95757.48
2019-05-20T03:45:04.145Z,95757.91
2019-05-20T03:47:35.848Z,95760.88
2019-05-20T03:50:08.063Z,95760.28
2019-05-20T03:52:39.649Z,95762.08
2019-05-20T03:55:11.352Z,95766.54
2019-05-20T03:57:42.007Z,95767.15
2019-05-20T04:00:13.429Z,95769.86
2019-05-20T04:02:51.166Z,95769.69
2019-05-20T04:05:22.827Z,95768.54
2019-05-20T04:07:54.144Z,95773.17
2019-05-20T04:10:24.747Z,95769.85
2019-05-20T04:12:56.213Z,95768.61
2019-05-20T04:15:27.778Z,95774.38
2019-05-20T04:17:59.028Z,95769.94
2019-05-20T04:20:29.973Z,95774.31
2019-05-20T04:23:00.919Z,95775.91
2019-05-20T04:25:32.796Z,95772.69
2019-05-20T04:28:04.191Z,95776.45
2019-05-20T04:30:35.450Z,95770.91
2019-05-20T04:33:07.176Z,95769.83
2019-05-20T04:35:38.553Z,95776.55
2019-05-20T04:38:09.223Z,95777.42
2019-05-20T04:40:41.070Z,95775.48
2019-05-20T04:43:14.446Z,95771.97
2019-05-20T04:45:45.848Z,95774.72
2019-05-20T04:48:17.364Z,95772.30
2019-05-20T04:50:47.992Z,95778.15
2019-05-20T04:53:19.457Z,95777.91
2019-05-20T04:55:51.151Z,95783.34
2019-05-20T04:58:23.198Z,95782.56
2019-05-20T05:00:59.334Z,95788.03
2019-05-20T05:03:29.972Z,95787.88
2019-05-20T05:06:02.204Z,95797.72
2019-05-20T05:08:33.233Z,95802.56
2019-05-20T05:11:04.214Z,95802.10
2019-05-20T05:13:39.484Z,95810.44
2019-05-20T05:16:11.001Z,95812.06
2019-05-20T05:18:46.429Z,95811.56
2019-05-20T05:21:17.782Z,95817.20
2019-05-20T05:23:58.873Z,95816.06
2019-05-20T05:26:21.919Z,95812.33
2019-05-20T05:28:53.388Z,95809.50
2019-05-20T05:31:24.409Z,95805.16
2019-05-20T05:33:55.665Z,95800.80
2019-05-20T05:36:27.357Z,95797.84
2019-05-20T05:38:58.661Z,95799.91
2019-05-20T05:41:30.017Z,95796.02
2019-05-20T05:44:04.963Z,95797.87
2019-05-20T05:46:36.373Z,95796.89
2019-05-20T05:49:07.326Z,95788.98
2019-05-20T05:51:39.346Z,95784.45
2019-05-20T05:54:11.248Z,95789.42
2019-05-20T05:56:43.071Z,95787.44
2019-05-20T05:59:14.438Z,95787.31
2019-05-20T06:01:45.592Z,95796.33
2019-05-20T06:04:17.267Z,95798.67
2019-05-20T06:06:48.917Z,95797.67
2019-05-20T06:09:19.999Z,95798.83
2019-05-20T06:11:50.994Z,95800.38
2019-05-20T06:14:22.361Z,95798.79
2019-05-20T06:16:54.111Z,95802.34
2019-05-20T06:19:25.578Z,95799.25
2019-05-20T06:21:57.188Z,95798.35
2019-05-20T06:24:28.122Z,95801.28
2019-05-20T06:26:59.749Z,95807.27
2019-05-20T06:29:31.078Z,95807.23
2019-05-20T06:32:02.816Z,95812.38
2019-05-20T06:34:34.527Z,95801.09
2019-05-20T06:37:07.886Z,95805.07
2019-05-20T06:39:38.928Z,95812.80
2019-05-20T06:42:10.145Z,95813.30
2019-05-20T06:44:52.335Z,95812.83
2019-05-20T06:47:14.377Z,95816.46
2019-05-20T06:49:46.239Z,95816.28
2019-05-20T06:52:33.259Z,95811.70
2019-05-20T06:54:51.011Z,95816.86
2019-05-20T06:57:23.916Z,95822.62
2019-05-20T06:59:54.088Z,95827.78
2019-05-20T07:02:25.209Z,95830.22
2019-05-20T07:04:56.178Z,95827.72
2019-05-20T07:07:28.108Z,95831.46
2019-05-20T07:09:59.481Z,95843.62
2019-05-20T07:12:40.694Z,95848.11
2019-05-20T07:15:04.089Z,95844.41
2019-05-20T07:17:35.865Z,95853.52
2019-05-20T07:20:07.249Z,95850.03
2019-05-20T07:22:54.633Z,95847.23
2019-05-20T07:25:11.765Z,95844.02
2019-05-20T07:27:43.016Z,95841.89
2019-05-20T07:30:15.865Z,95829.14
2019-05-20T07:32:47.521Z,95825.09
2019-05-20T07:35:29.631Z,95830.58
2019-05-20T07:37:51.576Z,95817.66
2019-05-20T07:40:32.913Z,95819.39
2019-05-20T07:43:04.619Z,95828.76
2019-05-20T07:45:36.299Z,95829.16
2019-05-20T07:48:07.708Z,95845.73
2019-05-20T07:50:40.917Z,95842.02
2019-05-20T07:53:14.325Z,95853.34
2019-05-20T07:56:14.225Z,95855.05
2019-05-20T07:58:50.105Z,95851.66
2019-05-20T08:01:21.401Z,95846.86
2019-05-20T08:03:52.683Z,95841.48
2019-05-20T08:06:23.333Z,95841.78
2019-05-20T08:08:54.933Z,95847.39
2019-05-20T08:11:25.913Z,95844.73
2019-05-20T08:13:57.606Z,95853.85
2019-05-20T08:16:28.603Z,95855.63
2019-05-20T08:19:00.027Z,95852.66
2019-05-20T08:21:31.720Z,95849.31
2019-05-20T08:24:02.744Z,95846.34
2019-05-20T08:26:34.235Z,95845.96
2019-05-20T08:29:05.336Z,95856.83
2019-05-20T08:31:36.689Z,95853.33
2019-05-20T08:34:07.972Z,95861.35
2019-05-20T08:36:38.913Z,95860.45
2019-05-20T08:39:10.467Z,95858.62
2019-05-20T08:41:41.259Z,95853.84
2019-05-20T08:44:12.312Z,95856.05
2019-05-20T08:46:42.643Z,95863.40
2019-05-20T08:49:13.582Z,95864.70
2019-05-20T08:51:45.014Z,95870.76
2019-05-20T08:54:16.655Z,95875.08
2019-05-20T08:56:49.377Z,95874.92
2019-05-20T08:59:20.686Z,95873.44
2019-05-20T09:01:52.690Z,95874.56
2019-05-20T09:04:24.399Z,95878.61
2019-05-20T09:06:55.630Z,95878.03
2019-05-20T09:09:27.412Z,95878.63
2019-05-20T09:11:58.981Z,95878.16
2019-05-20T09:14:30.488Z,95875.16
2019-05-20T09:17:01.705Z,95874.34
2019-05-20T09:19:33.434Z,95873.81
2019-05-20T09:22:04.473Z,95877.66
2019-05-20T09:24:35.165Z,95873.50
2019-05-20T09:27:06.344Z,95874.00
2019-05-20T09:29:38.173Z,95873.95
2019-05-20T09:32:09.791Z,95876.80
2019-05-20T09:34:41.940Z,95877.98
2019-05-20T09:37:13.279Z,95875.80
2019-05-20T09:39:44.625Z,95874.72
2019-05-20T09:42:16.620Z,95874.52
2019-05-20T09:44:48.326Z,95869.48
2019-05-20T09:47:19.434Z,95873.17
2019-05-20T09:49:51.156Z,95869.34
2019-05-20T09:52:22.300Z,95865.28
2019-05-20T09:54:53.586Z,95867.82
2019-05-20T09:57:26.806Z,95870.31
2019-05-20T09:59:58.358Z,95868.63
2019-05-20T10:02:35.785Z,95869.46
2019-05-20T10:05:02.982Z,95870.27
2019-05-20T10:07:33.997Z,95873.16
2019-05-20T10:10:04.934Z,95877.53
2019-05-20T10:12:46.239Z,95877.56
2019-05-20T10:15:42.990Z,95877.89
2019-05-20T10:18:14.561Z,95884.52
2019-05-20T10:20:45.920Z,95886.73
2019-05-20T10:23:16.963Z,95887.78
2019-05-20T10:25:48.403Z,95891.05
2019-05-20T10:28:19.051Z,95891.71
2019-05-20T10:30:50.100Z,95895.41
2019-05-20T10:33:21.134Z,95898.55
2019-05-20T10:35:53.054Z,95899.50
2019-05-20T10:38:24.779Z,95897.55
2019-05-20T10:40:55.995Z,95897.64
2019-05-20T10:43:27.647Z,95901.05
2019-05-20T10:45:58.619Z,95901.36
2019-05-20T10:48:29.628Z,95902.17
2019-05-20T10:51:01.238Z,95906.94
2019-05-20T10:53:32.501Z,95910.36
2019-05-20T10:56:03.461Z,95912.50
2019-05-20T10:58:34.806Z,95917.02
2019-05-20T11:01:07.117Z,95919.56
2019-05-20T11:03:38.327Z,95924.69
2019-05-20T11:06:09.177Z,95920.70
2019-05-20T11:08:40.217Z,95922.25
2019-05-20T11:11:14.462Z,95931.42
2019-05-20T11:13:45.162Z,95927.92
2019-05-20T11:16:18.557Z,95930.16
2019-05-20T11:19:08.636Z,95937.77
2019-05-20T11:21:39.927Z,95931.45
2019-05-20T11:24:11.228Z,95938.02
2019-05-20T11:26:42.427Z,95935.17
2019-05-20T11:29:13.561Z,95932.99
2019-05-20T11:31:45.114Z,95930.15
2019-05-20T11:34:16.117Z,95932.40
2019-05-20T11:36:47.468Z,95926.18
2019-05-20T11:39:32.560Z,95931.79
2019-05-20T11:41:53.904Z,95927.78
2019-05-20T11:44:25.474Z,95928.47
2019-05-20T11:46:56.746Z,95934.56
2019-05-20T11:49:29.476Z,95931.00
2019-05-20T11:52:01.140Z,95935.16
2019-05-20T11:54:32.836Z,95931.05
2019-05-20T11:57:04.179Z,95931.08
2019-05-20T11:59:35.530Z,95927.75
2019-05-20T12:02:06.787Z,95935.83
2019-05-20T12:04:38.413Z,95932.70
2019-05-20T12:07:09.089Z,95931.72
2019-05-20T12:09:49.675Z,95934.76
2019-05-20T12:12:13.399Z,95936.88
2019-05-20T12:14:44.700Z,95931.89
2019-05-20T12:17:15.663Z,95933.52
2019-05-20T12:19:47.232Z,95936.88
2019-05-20T12:22:18.282Z,95944.64
2019-05-20T12:24:51.699Z,95937.38
2019-05-20T12:27:22.697Z,95937.17
2019-05-20T12:29:53.845Z,95939.66
2019-05-20T12:32:24.944Z,95940.00
2019-05-20T12:34:55.875Z,95942.12
2019-05-20T12:37:27.454Z,95945.89
2019-05-20T12:40:07.002Z,95940.67
2019-05-20T12:42:32.381Z,95945.16
2019-05-20T12:45:03.584Z,95948.38
2019-05-20T12:47:35.645Z,95948.33
2019-05-20T12:50:07.090Z,95953.42
2019-05-20T12:52:38.750Z,95955.30
2019-05-20T12:55:10.385Z,95950.79
2019-05-20T12:57:41.453Z,95953.61
2019-05-20T13:00:12.995Z,95957.53
2019-05-20T13:02:43.947Z,95954.65
2019-05-20T13:05:15.184Z,95957.48
2019-05-20T13:07:45.480Z,95960.52
2019-05-20T13:10:28.861Z,95965.75
2019-05-20T13:12:49.832Z,95963.02
2019-05-20T13:15:22.213Z,95964.41
2019-05-20T13:17:53.250Z,95969.03
2019-05-20T13:20:24.778Z,95966.66
2019-05-20T13:22:56.065Z,95968.91
2019-05-20T13:25:27.823Z,95965.16
2019-05-20T13:27:59.145Z,95960.81
2019-05-20T13:30:30.155Z,95962.36
2019-05-20T13:33:01.075Z,95961.03
2019-05-20T13:35:33.809Z,95956.11
2019-05-20T13:38:04.755Z,95960.55
2019-05-20T13:40:46.521Z,95956.77
2019-05-20T13:43:09.522Z,95961.84
2019-05-20T13:45:42.293Z,95964.30
2019-05-20T13:48:13.554Z,95961.89
2019-05-20T13:50:46.222Z,95963.63
2019-05-20T13:53:19.108Z,95966.41
2019-05-20T13:55:50.998Z,95962.39
2019-05-20T13:58:22.060Z,95961.31
2019-05-20T14:00:55.437Z,95961.52
2019-05-20T14:03:26.810Z,95965.44
2019-05-20T14:05:58.151Z,95960.84
2019-05-20T14:08:29.671Z,95963.16
2019-05-20T14:11:04.720Z,95959.08
2019-05-20T14:13:34.397Z,95963.97
2019-05-20T14:16:05.572Z,95959.41
2019-05-20T14:18:36.616Z,95961.11
2019-05-20T14:21:07.403Z,95959.93
2019-05-20T14:23:38.852Z,95962.95
2019-05-20T14:26:10.225Z,95963.66
2019-05-20T14:28:44.044Z,95965.73
2019-05-20T14:31:15.467Z,95967.16
2019-05-20T14:33:47.178Z,95970.25
2019-05-20T14:36:37.788Z,95973.27
2019-05-20T14:38:51.555Z,95975.94
2019-05-20T14:41:22.602Z,95979.55
2019-05-20T14:43:55.353Z,95980.73
2019-05-20T14:46:27.503Z,95986.25
2019-05-20T14:49:02.177Z,95982.09
2019-05-20T14:51:31.819Z,95985.54
2019-05-20T14:54:03.395Z,95987.75
2019-05-20T14:56:34.973Z,95987.42
2019-05-20T14:59:06.105Z,95995.12
2019-05-20T15:01:38.335Z,95996.70
2019-05-20T15:04:09.014Z,96000.81
2019-05-20T15:06:40.740Z,96001.92
2019-05-20T15:09:13.571Z,96006.88
2019-05-20T15:11:47.256Z,96002.78
2019-05-20T15:14:18.527Z,96001.44
2019-05-20T15:17:24.841Z,96000.69
2019-05-20T15:19:55.957Z,95997.19
2019-05-20T15:22:27.687Z,96000.31
2019-05-20T15:24:59.690Z,96002.43
2019-05-20T15:27:30.983Z,95995.88
2019-05-20T15:30:01.857Z,95995.56
2019-05-20T15:32:32.821Z,95991.42
2019-05-20T15:35:17.408Z,95992.61
2019-05-20T15:37:48.567Z,95986.02
2019-05-20T15:40:23.179Z,95986.56
2019-05-20T15:42:52.123Z,95988.25
2019-05-20T15:45:23.433Z,95993.41
2019-05-20T15:47:55.182Z,95993.95
2019-05-20T15:50:26.539Z,95990.52
2019-05-20T15:52:58.214Z,95992.39
2019-05-20T15:55:29.215Z,95988.92
2019-05-20T15:58:00.477Z,95994.11
2019-05-20T16:00:32.504Z,95988.43
2019-05-20T16:03:04.391Z,96011.98
2019-05-20T16:05:35.662Z,96010.95
2019-05-20T16:08:07.100Z,96005.11
2019-05-20T16:10:37.735Z,96014.36
2019-05-20T16:13:09.395Z,96015.75
2019-05-20T16:15:40.953Z,96019.45
2019-05-20T16:18:12.572Z,96020.92
2019-05-20T16:20:47.462Z,96023.89
2019-05-20T16:23:19.269Z,96024.33
2019-05-20T16:25:50.468Z,96024.09
2019-05-20T16:28:29.157Z,96026.54
2019-05-20T16:31:00.432Z,96026.05
2019-05-20T16:33:32.272Z,96011.91
2019-05-20T16:36:03.098Z,96019.56
2019-05-20T16:38:34.495Z,96015.02
2019-05-20T16:41:06.962Z,96012.61
2019-05-20T16:43:38.791Z,96016.84
2019-05-20T16:46:10.348Z,96016.94
2019-05-20T16:48:41.993Z,96011.66
2019-05-20T16:51:23.630Z,96009.81
2019-05-20T16:53:54.875Z,96006.94
2019-05-20T16:56:26.119Z,96002.61
2019-05-20T16:59:02.138Z,96004.59
2019-05-20T17:01:45.582Z,96010.09
2019-05-20T17:04:07.155Z,96007.34
2019-05-20T17:06:39.056Z,96012.27
2019-05-20T17:09:11.029Z,96003.73
2019-05-20T17:11:42.429Z,96006.70
2019-05-20T17:14:19.959Z,96009.76
2019-05-20T17:16:51.467Z,96010.73
2019-05-20T17:19:23.341Z,96019.18
2019-05-20T17:21:54.955Z,96014.75
2019-05-20T17:24:26.460Z,96008.01
2019-05-20T17:26:58.268Z,96012.66
2019-05-20T17:29:30.432Z,96015.52
2019-05-20T17:32:02.257Z,96015.92
2019-05-20T17:34:33.483Z,96019.88
2019-05-20T17:37:05.010Z,96023.20
2019-05-20T17:39:45.878Z,96027.84
2019-05-20T17:42:17.729Z,96024.63
2019-05-20T17:44:50.349Z,96025.17
2019-05-20T17:47:21.564Z,96024.07
2019-05-20T17:49:53.168Z,96024.66
2019-05-20T17:52:24.823Z,96029.61
2019-05-20T17:54:56.090Z,96036.08
2019-05-20T17:57:27.621Z,96031.56
2019-05-20T17:59:59.170Z,96029.67
2019-05-20T18:02:30.064Z,96031.16
2019-05-20T18:05:01.948Z,96030.76
2019-05-20T18:07:33.342Z,96034.70
2019-05-20T18:10:04.558Z,96025.70
2019-05-20T18:12:36.133Z,96034.28
2019-05-20T18:15:11.116Z,96044.25
2019-05-20T18:17:49.111Z,96033.95
2019-05-20T18:20:25.898Z,96036.41
2019-05-20T18:23:03.698Z,96029.66
2019-05-20T18:25:42.437Z,96038.33
2019-05-20T18:28:14.073Z,96034.93
2019-05-20T18:30:49.167Z,96041.98
2019-05-20T18:33:20.152Z,96046.76
2019-05-20T18:35:51.179Z,96041.53
2019-05-20T18:38:27.194Z,96046.58
2019-05-20T18:41:11.878Z,96049.66
2019-05-20T18:43:48.930Z,96047.23
2019-05-20T18:46:27.788Z,96041.25
2019-05-20T18:48:59.258Z,96053.00
2019-05-20T18:51:31.795Z,96055.67
2019-05-20T18:54:03.375Z,96067.23
2019-05-20T18:56:35.248Z,96063.70
2019-05-20T18:59:06.523Z,96065.72
2019-05-20T19:01:50.944Z,96062.13
2019-05-20T19:04:23.135Z,96059.78
2019-05-20T19:06:56.383Z,96066.42
2019-05-20T19:09:32.151Z,96060.29
2019-05-20T19:12:07.791Z,96061.67
2019-05-20T19:14:39.239Z,96065.42
2019-05-20T19:17:11.757Z,96075.19
2019-05-20T19:19:43.371Z,96072.88
2019-05-20T19:22:14.765Z,96077.04
2019-05-20T19:24:45.798Z,96077.63
2019-05-20T19:27:17.382Z,96077.86
2019-05-20T19:29:49.208Z,96080.02
2019-05-20T19:32:22.154Z,96081.56
2019-05-20T19:34:55.393Z,96083.26
2019-05-20T19:37:36.214Z,96083.54
2019-05-20T19:40:10.058Z,96082.57
2019-05-20T19:42:44.544Z,96085.50
2019-05-20T19:45:16.352Z,96089.27
2019-05-20T19:47:54.248Z,96087.02
2019-05-20T19:50:25.497Z,96095.52
2019-05-20T19:52:59.699Z,96092.42
2019-05-20T19:55:35.259Z,96091.41
2019-05-20T19:58:12.018Z,96091.29
2019-05-20T20:00:44.568Z,96103.57
2019-05-20T20:03:16.251Z,96101.84
2019-05-20T20:05:52.951Z,96101.66
2019-05-20T20:08:29.655Z,96110.75
2019-05-20T20:11:05.990Z,96113.62
2019-05-20T20:13:38.027Z,96108.13
2019-05-20T20:16:21.736Z,96118.00
2019-05-20T20:19:03.669Z,96120.55
2019-05-20T20:21:39.155Z,96131.10
2019-05-20T20:24:11.192Z,96132.09
2019-05-20T20:26:45.849Z,96130.97
2019-05-20T20:29:20.563Z,96135.03
2019-05-20T20:31:54.324Z,96132.73
2019-05-20T20:34:38.891Z,96135.66
2019-05-20T20:37:11.383Z,96137.77
2019-05-20T20:39:51.055Z,96144.58
2019-05-20T20:42:23.616Z,96148.78
2019-05-20T20:44:55.297Z,96156.34
2019-05-20T20:47:40.875Z,96160.06
2019-05-20T20:50:07.685Z,96164.44
2019-05-20T20:52:50.723Z,96160.65
2019-05-20T20:55:35.020Z,96171.20
2019-05-20T20:58:14.538Z,96177.25
2019-05-20T21:00:55.540Z,96174.14
2019-05-20T21:03:29.865Z,96189.21
2019-05-20T21:06:01.561Z,96179.23
2019-05-20T21:08:33.655Z,96188.05
2019-05-20T21:11:15.630Z,96184.98
2019-05-20T21:13:47.615Z,96182.50
2019-05-20T21:16:19.477Z,96183.20
2019-05-20T21:18:54.367Z,96184.55
2019-05-20T21:21:46.134Z,96181.91
2019-05-20T21:24:17.643Z,96195.76
2019-05-20T21:26:48.677Z,96189.52
2019-05-20T21:29:34.242Z,96188.73
2019-05-20T21:32:18.135Z,96193.55
2019-05-20T21:35:05.559Z,96204.46
2019-05-20T21:37:51.543Z,96207.91
2019-05-20T21:40:26.419Z,96205.25
2019-05-20T21:42:59.701Z,96195.39
2019-05-20T21:45:30.403Z,96193.75
2019-05-20T21:48:01.813Z,96202.26
2019-05-20T21:50:32.870Z,96207.92
2019-05-20T21:53:10.529Z,96207.27
2019-05-20T21:55:42.518Z,96209.55
2019-05-20T21:58:15.205Z,96212.91
2019-05-20T22:00:51.375Z,96215.06
2019-05-20T22:03:24.964Z,96213.64
2019-05-20T22:05:59.881Z,96213.95
2019-05-20T22:08:45.778Z,96216.03
2019-05-20T22:11:23.416Z,96214.55
2019-05-20T22:13:57.291Z,96221.01
2019-05-20T22:16:36.196Z,96212.72
2019-05-20T22:19:22.286Z,96213.78
2019-05-20T22:22:09.403Z,96218.79
2019-05-20T22:24:45.501Z,96221.84
2019-05-20T22:27:23.557Z,96227.67
2019-05-20T22:29:59.551Z,96230.13
2019-05-20T22:32:31.410Z,96228.96
2019-05-20T22:35:06.538Z,96211.17
2019-05-20T22:37:40.236Z,96237.92
2019-05-20T22:40:13.262Z,96239.96
2019-05-20T22:42:49.639Z,96227.72
2019-05-20T22:45:22.528Z,96231.64
2019-05-20T22:47:55.354Z,96237.59
2019-05-20T22:50:30.619Z,96227.86
2019-05-20T22:53:01.797Z,96238.50
2019-05-20T22:55:33.404Z,96236.59
2019-05-20T22:58:08.254Z,96240.62
2019-05-20T23:00:41.079Z,96239.80
2019-05-20T23:03:14.349Z,96244.39
2019-05-20T23:05:45.937Z,96240.33
2019-05-20T23:08:22.811Z,96242.11
2019-05-20T23:11:06.827Z,96246.04
2019-05-20T23:13:50.774Z,96244.50
2019-05-20T23:16:26.271Z,96232.53
2019-05-20T23:19:07.953Z,96236.89
2019-05-20T23:21:47.620Z,96240.66
2019-05-20T23:24:26.419Z,96244.14
2019-05-20T23:27:02.858Z,96242.45
2019-05-20T23:29:41.057Z,96250.42
2019-05-20T23:32:15.551Z,96251.63
2019-05-20T23:34:49.046Z,96251.48
2019-05-20T23:37:33.315Z,96250.81
2019-05-20T23:40:05.534Z,96249.98
2019-05-20T23:42:39.450Z,96251.13
2019-05-20T23:45:15.871Z,96248.30
2019-05-20T23:47:48.312Z,96251.25
2019-05-20T23:50:25.557Z,96241.31
2019-05-20T23:52:57.961Z,96244.98
2019-05-20T23:55:29.791Z,96245.84
2019-05-20T23:58:06.338Z,96244.72
